createdAt,value
2023-01-07T00:01:24.289Z,43.50
2023-01-07T00:03:52.223Z,44.13
2023-01-07T00:06:28.947Z,42.80
2023-01-07T00:08:57.705Z,42.85
2023-01-07T00:11:33.211Z,43.32
2023-01-07T00:14:01.395Z,43.01
2023-01-07T00:16:31.032Z,43.59
2023-01-07T00:19:01.163Z,43.16
2023-01-07T00:21:29.785Z,44.17
2023-01-07T00:23:59.720Z,43.96
2023-01-07T00:26:29.799Z,43.39
2023-01-07T00:28:57.687Z,43.97
2023-01-07T00:31:30.494Z,43.17
2023-01-07T00:33:59.315Z,43.17
2023-01-07T00:36:31.424Z,43.16
2023-01-07T00:39:01.208Z,42.44
2023-01-07T00:41:28.594Z,42.27
2023-01-07T00:43:56.416Z,43.18
2023-01-07T00:46:24.218Z,43.69
2023-01-07T00:48:51.556Z,43.13
2023-01-07T00:51:19.647Z,42.85
2023-01-07T00:53:47.187Z,42.37
2023-01-07T00:56:16.256Z,42.31
2023-01-07T00:58:43.857Z,42.26
2023-01-07T01:01:12.294Z,43.26
2023-01-07T01:03:40.438Z,42.85
2023-01-07T01:06:16.200Z,43.09
2023-01-07T01:08:47.837Z,42.80
2023-01-07T01:11:16.298Z,43.11
2023-01-07T01:13:45.033Z,43.65
2023-01-07T01:16:16.289Z,42.66
2023-01-07T01:18:44.511Z,42.87
2023-01-07T01:21:14.079Z,43.42
2023-01-07T01:23:41.405Z,42.71
2023-01-07T01:26:14.771Z,42.99
2023-01-07T01:28:42.228Z,43.21
2023-01-07T01:31:10.631Z,42.33
2023-01-07T01:33:47.457Z,42.87
2023-01-07T01:36:14.787Z,42.94
2023-01-07T01:38:42.186Z,43.36
2023-01-07T01:41:10.315Z,43.33
2023-01-07T01:43:42.400Z,42.65
2023-01-07T01:46:29.177Z,42.56
2023-01-07T01:49:20.568Z,42.17
2023-01-07T01:51:55.539Z,43.56
2023-01-07T01:54:23.434Z,43.45
2023-01-07T01:56:58.039Z,43.72
2023-01-07T01:59:29.169Z,44.25
2023-01-07T02:01:58.500Z,43.48
2023-01-07T02:04:27.435Z,43.25
2023-01-07T02:07:04.421Z,43.62
2023-01-07T02:09:33.487Z,43.72
2023-01-07T02:12:09.686Z,43.61
2023-01-07T02:14:58.159Z,43.37
2023-01-07T02:18:09.822Z,44.39
2023-01-07T02:20:57.148Z,43.10
2023-01-07T02:23:58.778Z,43.00
2023-01-07T02:26:56.312Z,43.50
2023-01-07T02:30:08.891Z,44.15
2023-01-07T02:32:45.386Z,43.70
2023-01-07T02:35:45.018Z,43.76
2023-01-07T02:38:50.364Z,43.24
2023-01-07T02:42:05.496Z,43.20
2023-01-07T02:44:56.122Z,43.53
2023-01-07T02:48:00.837Z,43.38
2023-01-07T02:50:27.962Z,43.12
2023-01-07T02:52:55.000Z,43.56
2023-01-07T02:55:35.990Z,44.28
2023-01-07T02:58:15.263Z,43.07
2023-01-07T03:00:45.441Z,43.94
2023-01-07T03:03:18.365Z,44.20
2023-01-07T03:05:59.307Z,43.28
2023-01-07T03:08:46.734Z,43.85
2023-01-07T03:11:14.551Z,42.93
2023-01-07T03:13:48.954Z,44.11
2023-01-07T03:16:20.044Z,44.07
2023-01-07T03:18:56.032Z,43.47
2023-01-07T03:21:27.460Z,44.92
2023-01-07T03:24:00.569Z,43.40
2023-01-07T03:26:33.152Z,43.89
2023-01-07T03:29:03.011Z,44.33
2023-01-07T03:31:32.316Z,43.83
2023-01-07T03:34:08.522Z,42.99
2023-01-07T03:36:46.847Z,43.93
2023-01-07T03:39:15.885Z,43.92
2023-01-07T03:42:01.745Z,43.53
2023-01-07T03:44:29.039Z,44.02
2023-01-07T03:46:57.304Z,44.94
2023-01-07T03:49:25.277Z,44.02
2023-01-07T03:51:54.562Z,44.24
2023-01-07T03:54:23.640Z,44.72
2023-01-07T03:56:50.650Z,44.16
2023-01-07T03:59:18.430Z,43.64
2023-01-07T04:01:45.730Z,44.29
2023-01-07T04:04:12.981Z,44.32
2023-01-07T04:06:40.612Z,43.61
2023-01-07T04:09:07.759Z,43.65
2023-01-07T04:11:35.418Z,43.68
2023-01-07T04:14:02.528Z,44.38
2023-01-07T04:16:30.830Z,44.40
2023-01-07T04:18:58.047Z,44.74
2023-01-07T04:21:25.818Z,45.04
2023-01-07T04:23:53.030Z,44.69
2023-01-07T04:26:20.086Z,45.21
2023-01-07T04:28:47.650Z,44.99
2023-01-07T04:31:14.963Z,44.59
2023-01-07T04:33:42.079Z,44.55
2023-01-07T04:36:10.377Z,43.91
2023-01-07T04:38:37.747Z,43.71
2023-01-07T04:41:05.726Z,43.97
2023-01-07T04:43:34.091Z,43.91
2023-01-07T04:46:01.200Z,44.42
2023-01-07T04:48:28.684Z,43.63
2023-01-07T04:50:56.441Z,43.70
2023-01-07T04:53:23.783Z,44.36
2023-01-07T04:55:52.627Z,43.72
2023-01-07T04:58:20.920Z,44.57
2023-01-07T05:00:48.425Z,44.32
2023-01-07T05:03:16.517Z,43.99
2023-01-07T05:05:45.445Z,44.29
2023-01-07T05:08:13.021Z,44.09
2023-01-07T05:10:40.533Z,44.14
2023-01-07T05:13:07.911Z,44.37
2023-01-07T05:15:35.927Z,44.72
2023-01-07T05:18:03.085Z,44.24
2023-01-07T05:20:30.168Z,44.05
2023-01-07T05:22:58.747Z,43.97
2023-01-07T05:25:25.813Z,44.39
2023-01-07T05:27:53.111Z,44.42
2023-01-07T05:30:23.035Z,43.96
2023-01-07T05:32:50.124Z,43.86
2023-01-07T05:35:17.940Z,44.31
2023-01-07T05:37:45.927Z,43.06
2023-01-07T05:40:13.619Z,43.82
2023-01-07T05:42:40.733Z,43.84
2023-01-07T05:45:08.436Z,43.79
2023-01-07T05:47:35.435Z,43.83
2023-01-07T05:50:02.501Z,43.61
2023-01-07T05:52:32.554Z,43.38
2023-01-07T05:54:59.495Z,43.66
2023-01-07T05:57:26.539Z,43.92
2023-01-07T05:59:53.554Z,43.42
2023-01-07T06:02:20.488Z,43.99
2023-01-07T06:04:47.541Z,43.80
2023-01-07T06:07:14.612Z,43.99
2023-01-07T06:09:41.818Z,43.55
2023-01-07T06:12:08.774Z,44.26
2023-01-07T06:14:35.828Z,43.78
2023-01-07T06:17:02.776Z,43.91
2023-01-07T06:19:29.910Z,44.22
2023-01-07T06:21:56.932Z,43.26
2023-01-07T06:24:23.932Z,43.41
2023-01-07T06:26:51.019Z,42.49
2023-01-07T06:29:18.015Z,41.45
2023-01-07T06:31:45.126Z,40.61
2023-01-07T06:34:12.203Z,38.23
2023-01-07T06:36:39.327Z,36.46
2023-01-07T06:39:06.398Z,36.21
2023-01-07T06:41:33.571Z,33.92
2023-01-07T06:44:00.566Z,33.74
2023-01-07T06:46:27.782Z,32.34
2023-01-07T06:48:54.852Z,31.92
2023-01-07T06:51:21.916Z,30.62
2023-01-07T06:53:48.961Z,30.19
2023-01-07T06:56:15.996Z,29.87
2023-01-07T06:58:43.004Z,29.24
2023-01-07T07:01:10.171Z,27.42
2023-01-07T07:03:37.393Z,27.23
2023-01-07T07:06:05.033Z,26.19
2023-01-07T07:08:32.270Z,25.79
2023-01-07T07:10:59.306Z,25.01
2023-01-07T07:13:26.291Z,24.25
2023-01-07T07:15:53.429Z,24.10
2023-01-07T07:18:20.925Z,23.25
2023-01-07T07:20:48.359Z,22.57
2023-01-07T07:23:15.753Z,22.08
2023-01-07T07:25:43.227Z,21.82
2023-01-07T07:28:10.930Z,21.22
2023-01-07T07:30:46.363Z,20.94
2023-01-07T07:33:15.823Z,20.87
2023-01-07T07:35:42.989Z,20.49
2023-01-07T07:38:10.143Z,20.01
2023-01-07T07:40:37.379Z,19.87
2023-01-07T07:43:11.525Z,19.56
2023-01-07T07:45:41.157Z,19.63
2023-01-07T07:48:10.073Z,19.66
2023-01-07T07:50:37.387Z,20.27
2023-01-07T07:53:04.890Z,20.49
2023-01-07T07:55:32.517Z,20.79
2023-01-07T07:57:59.514Z,20.32
2023-01-07T08:00:26.735Z,20.25
2023-01-07T08:02:57.969Z,19.86
2023-01-07T08:05:26.089Z,19.21
2023-01-07T08:07:53.410Z,18.77
2023-01-07T08:10:21.141Z,18.54
2023-01-07T08:12:49.762Z,18.33
2023-01-07T08:15:17.650Z,17.64
2023-01-07T08:17:44.864Z,17.44
2023-01-07T08:20:12.333Z,17.13
2023-01-07T08:22:39.403Z,16.54
2023-01-07T08:25:06.883Z,17.08
2023-01-07T08:27:34.115Z,16.64
2023-01-07T08:30:01.159Z,15.97
2023-01-07T08:32:29.990Z,16.33
2023-01-07T08:34:57.871Z,16.17
2023-01-07T08:37:24.823Z,16.07
2023-01-07T08:39:51.842Z,16.00
2023-01-07T08:42:18.894Z,15.51
2023-01-07T08:44:46.060Z,15.40
2023-01-07T08:47:18.060Z,15.59
2023-01-07T08:49:50.477Z,15.22
2023-01-07T08:52:17.641Z,15.22
2023-01-07T08:54:45.982Z,14.82
2023-01-07T08:57:14.942Z,15.33
2023-01-07T08:59:45.520Z,15.85
2023-01-07T09:02:31.567Z,17.11
2023-01-07T09:04:58.644Z,18.37
2023-01-07T09:07:25.638Z,19.17
2023-01-07T09:09:52.707Z,19.83
2023-01-07T09:12:19.708Z,21.57
2023-01-07T09:14:46.778Z,22.53
2023-01-07T09:17:13.821Z,23.09
2023-01-07T09:19:40.844Z,23.99
2023-01-07T09:22:07.916Z,25.40
2023-01-07T09:24:34.974Z,24.97
2023-01-07T09:27:02.034Z,26.34
2023-01-07T09:29:29.081Z,27.36
2023-01-07T09:31:56.325Z,26.78
2023-01-07T09:34:23.470Z,28.37
2023-01-07T09:36:50.618Z,28.16
2023-01-07T09:39:17.671Z,29.04
2023-01-07T09:42:39.278Z,29.67
2023-01-07T09:45:27.282Z,29.86
2023-01-07T09:47:58.288Z,30.16
2023-01-07T09:50:28.406Z,31.09
2023-01-07T09:53:00.856Z,31.53
2023-01-07T09:55:39.312Z,31.20
2023-01-07T09:58:26.801Z,32.13
2023-01-07T10:01:04.747Z,32.48
2023-01-07T10:03:47.221Z,31.65
2023-01-07T10:06:43.825Z,33.02
2023-01-07T10:09:29.781Z,32.26
2023-01-07T10:11:57.799Z,33.62
2023-01-07T10:14:47.269Z,32.84
2023-01-07T10:18:10.487Z,33.42
2023-01-07T10:21:12.240Z,34.69
2023-01-07T10:23:43.760Z,34.25
2023-01-07T10:26:29.743Z,34.68
2023-01-07T10:29:07.147Z,33.91
2023-01-07T10:31:34.336Z,34.90
2023-01-07T10:34:01.799Z,34.10
2023-01-07T10:36:32.461Z,32.28
2023-01-07T10:39:08.389Z,30.75
2023-01-07T10:41:52.989Z,28.96
2023-01-07T10:44:26.227Z,28.06
2023-01-07T10:47:11.869Z,27.11
2023-01-07T10:49:47.750Z,26.43
2023-01-07T11:03:08.104Z,25.71
2023-01-07T11:05:38.687Z,25.06
2023-01-07T11:08:14.968Z,25.41
2023-01-07T11:10:42.646Z,24.89
2023-01-07T11:13:21.351Z,25.66
2023-01-07T11:15:56.166Z,26.10
2023-01-07T11:18:36.610Z,27.24
2023-01-07T11:21:03.715Z,28.71
2023-01-07T11:23:43.738Z,28.68
2023-01-07T11:26:37.572Z,29.76
2023-01-07T11:29:27.827Z,29.81
2023-01-07T11:32:00.941Z,30.84
2023-01-07T11:34:37.756Z,31.67
2023-01-07T11:37:05.521Z,31.95
2023-01-07T11:39:36.433Z,32.12
2023-01-07T11:42:36.005Z,32.56
2023-01-07T11:45:14.626Z,32.39
2023-01-07T11:47:48.527Z,33.69
2023-01-07T11:50:30.158Z,33.49
2023-01-07T11:53:07.647Z,33.74
2023-01-07T11:55:34.843Z,34.04
2023-01-07T11:58:28.271Z,34.17
2023-01-07T12:01:17.884Z,35.13
2023-01-07T12:03:54.764Z,35.32
2023-01-07T12:06:29.557Z,35.46
2023-01-07T12:09:04.027Z,35.01
2023-01-07T12:11:38.979Z,36.20
2023-01-07T12:14:26.852Z,36.19
2023-01-07T12:16:56.834Z,36.49
2023-01-07T12:19:53.175Z,37.33
2023-01-07T12:22:38.694Z,36.47
2023-01-07T12:25:24.159Z,36.91
2023-01-07T12:27:59.965Z,36.83
2023-01-07T12:30:52.265Z,37.28
2023-01-07T12:33:40.973Z,37.26
2023-01-07T12:36:24.442Z,37.35
2023-01-07T12:38:55.930Z,38.32
2023-01-07T12:41:27.992Z,39.11
2023-01-07T12:44:23.574Z,39.34
2023-01-07T12:47:30.588Z,38.74
2023-01-07T12:50:18.510Z,40.09
2023-01-07T12:52:52.064Z,39.92
2023-01-07T12:55:30.897Z,40.79
2023-01-07T12:58:27.537Z,40.15
2023-01-07T13:01:00.728Z,40.99
2023-01-07T13:04:26.469Z,40.44
2023-01-07T13:07:14.257Z,41.48
2023-01-07T13:09:58.404Z,41.53
2023-01-07T13:12:51.526Z,41.70
2023-01-07T13:15:22.283Z,41.67
2023-01-07T13:17:58.381Z,41.91
2023-01-07T13:20:45.997Z,42.27
2023-01-07T13:23:31.597Z,42.68
2023-01-07T13:26:14.174Z,42.17
2023-01-07T13:29:05.411Z,42.50
2023-01-07T13:31:44.567Z,42.27
2023-01-07T13:34:49.691Z,42.98
2023-01-07T13:37:58.286Z,42.96
2023-01-07T13:40:44.191Z,43.08
2023-01-07T13:43:34.803Z,43.49
2023-01-07T13:46:09.110Z,44.14
2023-01-07T13:48:38.689Z,43.31
2023-01-07T13:51:09.067Z,43.35
2023-01-07T13:53:46.282Z,43.67
2023-01-07T13:56:19.668Z,42.80
2023-01-07T13:58:55.436Z,43.12
2023-01-07T14:02:05.679Z,42.48
2023-01-07T14:04:35.701Z,43.04
2023-01-07T14:07:03.043Z,43.04
2023-01-07T14:09:36.628Z,42.65
2023-01-07T14:12:44.852Z,42.64
2023-01-07T14:15:41.422Z,42.77
2023-01-07T14:18:11.365Z,42.95
2023-01-07T14:20:55.800Z,42.37
2023-01-07T14:23:52.291Z,42.84
2023-01-07T14:26:36.751Z,42.10
2023-01-07T14:29:09.962Z,42.31
2023-01-07T14:31:37.468Z,42.37
2023-01-07T14:34:28.062Z,41.78
2023-01-07T14:37:09.898Z,41.74
2023-01-07T14:39:44.157Z,41.19
2023-01-07T14:42:20.273Z,41.76
2023-01-07T14:44:51.516Z,41.99
2023-01-07T14:47:43.268Z,41.78
2023-01-07T14:50:38.954Z,41.75
2023-01-07T14:53:45.529Z,42.31
2023-01-07T14:56:19.515Z,41.92
2023-01-07T14:58:55.934Z,42.55
2023-01-07T15:01:28.989Z,42.35
2023-01-07T15:04:17.684Z,41.56
2023-01-07T15:06:45.992Z,41.79
2023-01-07T15:09:39.121Z,42.46
2023-01-07T15:12:38.130Z,41.51
2023-01-07T15:15:42.687Z,41.27
2023-01-07T15:18:11.620Z,41.43
2023-01-07T15:21:03.159Z,41.43
2023-01-07T15:23:35.969Z,41.42
2023-01-07T15:26:14.372Z,41.31
2023-01-07T15:28:54.101Z,41.23
2023-01-07T15:31:51.277Z,41.45
2023-01-07T15:34:20.140Z,41.26
2023-01-07T15:36:50.697Z,41.18
2023-01-07T15:39:37.219Z,41.70
2023-01-07T15:42:04.400Z,41.58
2023-01-07T15:44:42.457Z,41.58
2023-01-07T15:47:27.982Z,41.46
2023-01-07T15:49:55.001Z,41.83
2023-01-07T15:52:28.244Z,41.40
2023-01-07T15:54:55.290Z,41.71
2023-01-07T15:57:34.449Z,41.67
2023-01-07T16:00:01.741Z,42.20
2023-01-07T16:02:37.724Z,42.04
2023-01-07T16:05:06.236Z,42.13
2023-01-07T16:07:48.441Z,42.14
2023-01-07T16:10:26.841Z,42.90
2023-01-07T16:12:56.996Z,42.15
2023-01-07T16:15:28.523Z,42.62
2023-01-07T16:17:58.802Z,42.61
2023-01-07T16:20:29.537Z,42.32
2023-01-07T16:23:30.669Z,42.77
2023-01-07T16:26:13.598Z,42.61
2023-01-07T16:28:45.968Z,42.92
2023-01-07T16:31:15.259Z,43.34
2023-01-07T16:33:43.746Z,42.51
2023-01-07T16:36:23.836Z,42.67
2023-01-07T16:38:53.994Z,42.43
2023-01-07T16:41:24.904Z,42.94
2023-01-07T16:43:58.968Z,42.97
2023-01-07T16:46:31.521Z,43.16
2023-01-07T16:49:30.098Z,42.75
2023-01-07T16:52:03.199Z,43.15
2023-01-07T16:54:34.411Z,42.29
2023-01-07T16:57:07.216Z,42.81
2023-01-07T16:59:37.381Z,43.18
2023-01-07T17:02:28.845Z,42.32
2023-01-07T17:05:09.641Z,42.56
2023-01-07T17:07:38.541Z,42.95
2023-01-07T17:10:06.490Z,43.45
2023-01-07T17:12:41.109Z,42.82
2023-01-07T17:15:34.944Z,43.02
2023-01-07T17:18:17.144Z,43.32
2023-01-07T17:20:47.980Z,42.56
2023-01-07T17:23:27.226Z,43.94
2023-01-07T17:26:01.447Z,43.55
2023-01-07T17:28:31.280Z,42.91
2023-01-07T17:30:58.820Z,43.68
2023-01-07T17:33:27.212Z,42.83
2023-01-07T17:35:54.438Z,42.88
2023-01-07T17:38:21.430Z,42.99
2023-01-07T17:40:48.994Z,43.20
2023-01-07T17:43:33.629Z,43.23
2023-01-07T17:46:06.238Z,42.12
2023-01-07T17:48:35.226Z,42.24
2023-01-07T17:51:04.746Z,42.47
2023-01-07T17:53:53.225Z,43.01
2023-01-07T17:56:20.473Z,42.71
2023-01-07T17:58:47.862Z,42.59
2023-01-07T18:01:20.242Z,43.12
2023-01-07T18:03:47.733Z,42.55
2023-01-07T18:06:22.270Z,43.70
2023-01-07T18:08:51.383Z,44.06
2023-01-07T18:11:43.593Z,44.04
2023-01-07T18:14:14.764Z,43.60
2023-01-07T18:16:43.324Z,44.59
2023-01-07T18:19:15.232Z,43.95
2023-01-07T18:21:42.658Z,44.66
2023-01-07T18:24:15.821Z,44.30
2023-01-07T18:26:43.074Z,45.47
2023-01-07T18:29:11.505Z,44.16
2023-01-07T18:31:41.823Z,44.73
2023-01-07T18:34:14.225Z,44.78
2023-01-07T18:36:41.787Z,44.66
2023-01-07T18:39:17.433Z,45.13
2023-01-07T18:41:48.831Z,45.60
2023-01-07T18:44:20.057Z,45.14
2023-01-07T18:46:47.382Z,44.85
2023-01-07T18:49:14.843Z,45.53
2023-01-07T18:51:42.196Z,45.21
2023-01-07T18:54:09.345Z,45.31
2023-01-07T18:56:36.528Z,45.91
2023-01-07T18:59:04.134Z,45.72
2023-01-07T19:01:31.330Z,46.32
2023-01-07T19:03:58.784Z,46.27
2023-01-07T19:06:25.872Z,46.23
2023-01-07T19:08:54.311Z,46.40
2023-01-07T19:11:21.464Z,46.18
2023-01-07T19:13:48.963Z,45.63
2023-01-07T19:16:16.061Z,45.39
2023-01-07T19:18:43.509Z,45.53
2023-01-07T19:21:12.925Z,45.93
2023-01-07T19:23:40.661Z,45.65
2023-01-07T19:26:10.204Z,45.94
2023-01-07T19:28:40.671Z,46.21
2023-01-07T19:31:09.507Z,46.14
2023-01-07T19:33:37.194Z,46.23
2023-01-07T19:36:10.825Z,45.05
2023-01-07T19:38:43.039Z,46.12
2023-01-07T19:41:12.771Z,45.84
2023-01-07T19:43:40.098Z,45.96
2023-01-07T19:46:09.886Z,44.92
2023-01-07T19:48:38.664Z,46.31
2023-01-07T19:51:07.103Z,45.12
2023-01-07T19:53:35.715Z,45.33
2023-01-07T19:56:08.353Z,45.49
2023-01-07T19:58:35.428Z,45.20
2023-01-07T20:01:07.490Z,45.65
2023-01-07T20:03:35.782Z,46.15
2023-01-07T20:06:11.694Z,46.02
2023-01-07T20:08:40.009Z,45.55
2023-01-07T20:11:07.533Z,45.53
2023-01-07T20:13:36.638Z,45.67
2023-01-07T20:16:10.684Z,45.71
2023-01-07T20:18:43.499Z,46.69
2023-01-07T20:21:11.947Z,46.54
2023-01-07T20:23:40.852Z,47.39
2023-01-07T20:26:14.471Z,46.97
2023-01-07T20:28:41.918Z,46.27
2023-01-07T20:31:13.642Z,46.91
2023-01-07T20:33:41.984Z,46.85
2023-01-07T20:36:14.355Z,46.76
2023-01-07T20:38:42.989Z,46.77
2023-01-07T20:41:14.163Z,46.21
2023-01-07T20:43:41.469Z,45.68
2023-01-07T20:46:09.275Z,46.02
2023-01-07T20:48:36.892Z,46.30
2023-01-07T20:51:08.528Z,46.97
2023-01-07T20:53:37.526Z,46.87
2023-01-07T20:56:06.124Z,47.47
2023-01-07T20:58:35.514Z,47.67
2023-01-07T21:01:11.613Z,47.42
2023-01-07T21:03:39.805Z,46.88
2023-01-07T21:06:10.051Z,47.63
2023-01-07T21:08:37.663Z,47.63
2023-01-07T21:11:08.286Z,47.50
2023-01-07T21:13:35.262Z,47.97
2023-01-07T21:16:04.331Z,47.37
2023-01-07T21:18:32.830Z,48.53
2023-01-07T21:21:00.692Z,47.68
2023-01-07T21:23:27.873Z,47.86
2023-01-07T21:25:54.980Z,48.12
2023-01-07T21:28:22.344Z,48.64
2023-01-07T21:30:50.237Z,48.61
2023-01-07T21:33:17.317Z,48.34
2023-01-07T21:35:44.349Z,48.48
2023-01-07T21:38:11.332Z,48.91
2023-01-07T21:40:39.655Z,48.24
2023-01-07T21:43:07.041Z,48.73
2023-01-07T21:45:34.248Z,48.09
2023-01-07T21:48:01.358Z,49.00
2023-01-07T21:50:28.628Z,47.99
2023-01-07T21:52:55.695Z,48.18
2023-01-07T21:55:22.971Z,48.48
2023-01-07T21:57:50.037Z,47.39
2023-01-07T22:00:17.364Z,48.58
2023-01-07T22:02:44.920Z,47.55
2023-01-07T22:05:12.236Z,48.60
2023-01-07T22:07:39.426Z,47.42
2023-01-07T22:10:06.847Z,47.82
2023-01-07T22:12:33.894Z,47.90
2023-01-07T22:15:01.264Z,46.97
2023-01-07T22:17:31.062Z,47.26
2023-01-07T22:19:58.280Z,47.40
2023-01-07T22:22:25.406Z,47.50
2023-01-07T22:24:52.433Z,47.81
2023-01-07T22:27:19.537Z,46.93
2023-01-07T22:29:46.842Z,47.40
2023-01-07T22:32:14.037Z,46.66
2023-01-07T22:34:41.534Z,47.17
2023-01-07T22:37:08.582Z,47.37
2023-01-07T22:39:39.110Z,47.46
2023-01-07T22:42:14.201Z,47.57
2023-01-07T22:44:45.533Z,48.57
2023-01-07T22:47:17.579Z,48.21
2023-01-07T22:49:45.532Z,47.89
2023-01-07T22:52:12.685Z,48.99
2023-01-07T22:54:40.274Z,48.67
2023-01-07T22:57:10.715Z,49.08
2023-01-07T22:59:38.169Z,48.63
2023-01-07T23:02:06.125Z,48.82
2023-01-07T23:04:33.285Z,48.52
2023-01-07T23:07:00.657Z,48.65
2023-01-07T23:09:27.930Z,48.85
2023-01-07T23:11:59.514Z,48.46
2023-01-07T23:14:27.954Z,48.61
2023-01-07T23:16:56.004Z,48.90
2023-01-07T23:19:23.114Z,48.92
2023-01-07T23:21:54.161Z,49.02
2023-01-07T23:24:23.001Z,48.42
2023-01-07T23:26:53.016Z,47.46
2023-01-07T23:29:21.263Z,47.92
2023-01-07T23:31:49.405Z,47.90
2023-01-07T23:34:17.204Z,48.53
2023-01-07T23:36:45.000Z,48.45
2023-01-07T23:39:13.155Z,48.63
2023-01-07T23:41:40.374Z,48.25
2023-01-07T23:44:07.548Z,47.99
2023-01-07T23:46:34.575Z,47.96
2023-01-07T23:49:01.910Z,47.77
2023-01-07T23:51:29.107Z,48.46
2023-01-07T23:53:56.143Z,48.52
2023-01-07T23:56:23.657Z,47.58
2023-01-07T23:58:51.021Z,47.76
